createdAt,value
2023-03-02T17:01:46.840Z,58.40
2023-03-02T17:03:19.293Z,42.25
2023-03-02T17:04:51.408Z,53.00
2023-03-02T17:06:23.531Z,50.50
2023-03-02T17:07:57.214Z,59.20
2023-03-02T17:09:29.544Z,66.40
2023-03-02T17:11:04.084Z,68.20
2023-03-02T17:12:36.198Z,73.25
2023-03-02T17:14:10.007Z,78.75
2023-03-02T17:15:45.266Z,92.75
2023-03-02T17:17:18.444Z,96.50
2023-03-02T17:18:50.499Z,97.75
2023-03-02T17:20:22.736Z,94.33
2023-03-02T17:21:57.222Z,106.25
2023-03-02T17:23:29.214Z,94.00
2023-03-02T17:25:03.524Z,105.00
2023-03-02T17:26:36.568Z,104.75
2023-03-02T17:28:09.522Z,104.00
2023-03-02T17:29:41.728Z,107.75
2023-03-02T17:31:13.850Z,113.50
2023-03-02T17:32:45.910Z,106.00
2023-03-02T17:34:17.962Z,125.00
2023-03-02T17:35:50.495Z,136.00
2023-03-02T17:37:22.569Z,137.33
2023-03-02T17:38:54.465Z,122.33
2023-03-02T17:40:26.920Z,123.33
2023-03-02T17:42:03.690Z,115.50
2023-03-02T17:43:36.736Z,107.25
2023-03-02T17:45:09.367Z,101.50
2023-03-02T17:46:43.039Z,99.00
2023-03-02T17:48:15.076Z,104.00
2023-03-02T17:49:47.452Z,107.75
2023-03-02T17:51:19.595Z,107.25
2023-03-02T17:52:51.865Z,109.25
2023-03-02T17:54:23.776Z,98.00
2023-03-02T17:55:55.814Z,112.50
2023-03-02T17:57:28.546Z,113.50
2023-03-02T17:59:02.173Z,113.50
2023-03-02T18:01:26.611Z,118.25
2023-03-02T18:03:27.537Z,123.75
2023-03-02T18:05:11.769Z,119.33
2023-03-02T18:06:54.150Z,124.67
2023-03-02T18:08:51.846Z,126.33
2023-03-02T18:10:53.081Z,138.33
2023-03-02T18:13:02.816Z,138.00
2023-03-02T18:14:38.169Z,142.33
2023-03-02T18:16:11.167Z,139.33
2023-03-02T18:17:43.256Z,144.33
2023-03-02T18:19:15.689Z,147.33
2023-03-02T18:20:48.252Z,149.67
2023-03-02T18:22:22.213Z,145.67
2023-03-02T18:23:54.823Z,140.33
2023-03-02T18:25:28.949Z,148.33
2023-03-02T18:27:04.414Z,286.00
2023-03-02T18:28:36.443Z,283.00
2023-03-02T18:30:11.137Z,212.25
2023-03-02T18:31:43.363Z,212.00
2023-03-02T18:33:15.508Z,200.25
2023-03-02T18:34:47.600Z,178.50
2023-03-02T18:36:19.616Z,184.75
2023-03-02T18:37:51.654Z,175.00
2023-03-02T18:39:23.727Z,167.50
2023-03-02T18:40:58.882Z,167.50
2023-03-02T18:42:35.552Z,170.00
2023-03-02T18:44:07.603Z,157.50
2023-03-02T18:45:40.341Z,151.50
2023-03-02T18:47:14.927Z,155.75
2023-03-02T18:48:47.636Z,158.50
2023-03-02T18:50:19.535Z,330.80
2023-03-02T18:51:51.678Z,233.50
2023-03-02T18:53:23.587Z,215.75
2023-03-02T18:54:57.933Z,198.00
2023-03-02T18:56:30.322Z,181.75
2023-03-02T18:58:02.890Z,185.25
2023-03-02T18:59:35.723Z,180.00
2023-03-02T19:01:08.460Z,169.50
2023-03-02T19:02:40.497Z,157.75
2023-03-02T19:04:13.600Z,161.75
2023-03-02T19:05:45.682Z,158.00
2023-03-02T19:07:18.189Z,162.00
2023-03-02T19:08:50.124Z,171.75
2023-03-02T19:10:22.461Z,212.00
2023-03-02T19:11:54.702Z,187.00
2023-03-02T19:13:27.528Z,201.50
2023-03-02T19:14:59.789Z,178.25
2023-03-02T19:16:33.748Z,175.50
2023-03-02T19:18:05.836Z,169.75
2023-03-02T19:19:38.624Z,162.25
2023-03-02T19:21:10.573Z,161.33
2023-03-02T19:22:42.746Z,155.25
2023-03-02T19:24:14.707Z,148.00
2023-03-02T19:25:46.897Z,155.67
2023-03-02T19:27:18.849Z,194.25
2023-03-02T19:28:50.993Z,173.00
2023-03-02T19:30:24.935Z,145.75
2023-03-02T19:31:59.607Z,150.25
2023-03-02T19:33:36.177Z,157.50
2023-03-02T19:35:09.214Z,156.00
2023-03-02T19:36:41.540Z,153.67
2023-03-02T19:38:13.853Z,156.00
2023-03-02T19:39:45.907Z,160.00
2023-03-02T19:41:20.242Z,157.25
2023-03-02T19:42:52.651Z,153.00
2023-03-02T19:44:28.570Z,151.00
2023-03-02T19:46:00.990Z,173.00
2023-03-02T19:47:33.198Z,177.75
2023-03-02T19:49:05.231Z,159.75
2023-03-02T19:50:37.478Z,141.67
2023-03-02T19:52:09.484Z,157.33
2023-03-02T19:53:41.837Z,150.00
2023-03-02T19:55:14.410Z,151.67
2023-03-02T19:56:53.261Z,146.00
2023-03-02T20:00:23.122Z,146.67
2023-03-02T20:01:55.664Z,148.33
2023-03-02T20:03:33.391Z,142.67
2023-03-02T20:05:06.079Z,137.33
2023-03-02T20:06:39.079Z,138.00
2023-03-02T20:08:12.069Z,138.67
2023-03-02T20:09:44.349Z,141.67
2023-03-02T20:11:16.730Z,173.25
2023-03-02T20:12:49.048Z,149.50
2023-03-02T20:14:33.537Z,142.00
2023-03-02T20:16:06.484Z,140.67
2023-03-02T20:17:38.372Z,124.33
2023-03-02T20:19:12.162Z,125.00
2023-03-02T20:20:48.844Z,135.00
2023-03-02T20:22:20.792Z,131.00
2023-03-02T20:23:53.687Z,129.33
2023-03-02T20:25:26.067Z,132.67
2023-03-02T20:26:59.697Z,134.33
2023-03-02T20:35:44.293Z,126.33
2023-03-02T20:37:46.614Z,122.67
2023-03-02T20:39:24.581Z,129.67
2023-03-02T20:40:57.299Z,150.67
2023-03-02T20:42:54.562Z,127.33
2023-03-02T20:44:31.964Z,115.00
2023-03-02T20:46:08.558Z,119.75
2023-03-02T20:47:41.606Z,127.67
2023-03-02T20:49:15.348Z,127.67
2023-03-02T20:50:47.593Z,121.67
2023-03-02T20:52:20.157Z,120.00
2023-03-02T20:53:53.251Z,129.00
2023-03-02T20:55:28.857Z,124.33
2023-03-02T20:57:01.371Z,119.33
2023-03-02T20:58:33.615Z,113.75
2023-03-02T21:00:07.910Z,124.50
2023-03-02T21:01:39.963Z,123.67
2023-03-02T21:03:12.189Z,115.00
2023-03-02T21:04:46.572Z,123.25
2023-03-02T21:06:18.572Z,112.00
2023-03-02T21:07:50.503Z,114.00
2023-03-02T21:09:22.470Z,112.75
2023-03-02T21:10:54.658Z,105.25
2023-03-02T21:12:30.818Z,110.75
2023-03-02T21:14:02.907Z,109.75
2023-03-02T21:16:00.183Z,108.50
2023-03-02T21:17:32.528Z,103.00
2023-03-02T21:19:34.996Z,97.00
2023-03-02T21:21:10.776Z,99.50
2023-03-02T21:22:42.807Z,104.00
2023-03-02T21:24:18.559Z,108.75
2023-03-02T21:25:50.821Z,114.25
2023-03-02T21:27:22.898Z,113.50
2023-03-02T21:28:55.451Z,111.50
2023-03-02T21:30:35.729Z,106.50
2023-03-02T21:32:08.169Z,107.00
2023-03-02T21:33:40.275Z,111.75
2023-03-02T21:35:18.110Z,109.25
2023-03-02T21:36:53.216Z,105.75
2023-03-02T21:38:25.802Z,108.00
2023-03-02T21:39:59.108Z,115.67
2023-03-02T21:41:56.080Z,192.25
2023-03-02T21:43:56.003Z,148.00
2023-03-02T21:45:31.409Z,139.33
2023-03-02T21:47:31.245Z,139.67
2023-03-02T21:49:03.389Z,130.33
2023-03-02T21:50:36.853Z,130.33
2023-03-02T21:52:08.716Z,123.67
2023-03-02T21:54:06.365Z,130.00
2023-03-02T21:55:43.960Z,121.67
2023-03-02T21:57:20.727Z,118.00
2023-03-02T21:58:54.603Z,115.25
2023-03-02T22:00:34.122Z,114.00
2023-03-02T22:02:07.394Z,120.75
2023-03-02T22:04:03.881Z,122.67
2023-03-02T22:05:36.147Z,114.50
2023-03-02T22:07:08.568Z,125.00
2023-03-02T22:08:40.544Z,121.50
2023-03-02T22:10:45.545Z,117.75
2023-03-02T22:12:17.422Z,117.75
2023-03-02T22:13:50.157Z,120.25
2023-03-02T22:15:22.476Z,118.50
2023-03-02T22:16:54.344Z,119.00
2023-03-02T22:18:29.061Z,110.50
2023-03-02T22:20:25.984Z,113.00
2023-03-02T22:22:00.920Z,95.00
2023-03-02T22:23:33.383Z,108.50
2023-03-02T22:25:15.754Z,105.50
2023-03-02T22:26:54.272Z,102.25
2023-03-02T22:28:30.076Z,103.75
2023-03-02T22:30:02.156Z,100.75
2023-03-02T22:32:01.735Z,100.00
2023-03-02T22:33:36.880Z,98.00
2023-03-02T22:35:26.112Z,92.50
2023-03-02T22:37:03.360Z,91.00
2023-03-02T22:38:35.529Z,95.25
2023-03-02T22:40:34.573Z,96.00
2023-03-02T22:42:09.364Z,100.25
2023-03-02T22:43:41.400Z,99.50
2023-03-02T22:45:15.476Z,100.50
2023-03-02T22:46:47.618Z,92.25
2023-03-02T22:48:21.384Z,100.75
2023-03-02T22:49:59.048Z,93.75
2023-03-02T22:51:31.238Z,90.25
2023-03-02T22:53:03.211Z,95.25
2023-03-02T22:54:42.174Z,90.00
2023-03-02T22:56:21.172Z,94.00
2023-03-02T22:57:53.413Z,113.25
2023-03-02T22:59:27.244Z,96.25
2023-03-02T23:01:00.130Z,83.25
2023-03-02T23:02:32.340Z,88.50
2023-03-02T23:04:20.044Z,87.00
2023-03-02T23:05:53.108Z,102.00
2023-03-02T23:07:25.897Z,99.50
2023-03-02T23:09:04.284Z,104.50
2023-03-02T23:10:36.350Z,99.25
2023-03-02T23:12:23.224Z,89.75
2023-03-02T23:13:55.522Z,81.25
2023-03-02T23:15:37.156Z,94.50
2023-03-02T23:17:37.004Z,96.50
2023-03-02T23:19:08.867Z,92.50
2023-03-02T23:20:40.805Z,97.50
2023-03-02T23:22:12.964Z,87.50
2023-03-02T23:24:13.143Z,89.00
2023-03-02T23:25:53.378Z,93.50
2023-03-02T23:27:52.220Z,87.00
2023-03-02T23:29:30.969Z,83.50
2023-03-02T23:31:06.639Z,90.25
2023-03-02T23:33:04.921Z,78.75
2023-03-02T23:34:43.536Z,81.25
